createdAt,value
2023-02-14T00:00:03.522Z,37.90
2023-02-14T00:02:34.784Z,37.91
2023-02-14T00:05:01.291Z,37.93
2023-02-14T00:07:27.700Z,37.99
2023-02-14T00:09:54.076Z,38.35
2023-02-14T00:12:20.558Z,38.17
2023-02-14T00:14:46.950Z,38.19
2023-02-14T00:17:13.372Z,38.40
2023-02-14T00:19:39.917Z,38.44
2023-02-14T00:22:06.326Z,38.91
2023-02-14T00:24:32.718Z,38.71
2023-02-14T00:26:59.161Z,38.57
2023-02-14T00:29:25.545Z,38.64
2023-02-14T00:31:52.020Z,38.64
2023-02-14T00:34:18.497Z,38.83
2023-02-14T00:36:44.917Z,38.81
2023-02-14T00:39:11.393Z,38.28
2023-02-14T00:41:37.896Z,38.41
2023-02-14T00:44:04.373Z,38.77
2023-02-14T00:46:30.796Z,38.63
2023-02-14T00:48:57.247Z,38.66
2023-02-14T00:51:23.703Z,38.74
2023-02-14T00:53:50.105Z,38.74
2023-02-14T00:56:16.531Z,38.91
2023-02-14T00:58:42.979Z,38.70
2023-02-14T01:01:09.432Z,38.72
2023-02-14T01:03:35.915Z,38.89
2023-02-14T01:06:02.312Z,38.82
2023-02-14T01:08:29.580Z,38.95
2023-02-14T01:10:56.027Z,39.02
2023-02-14T01:13:22.422Z,39.08
2023-02-14T01:15:48.814Z,39.27
2023-02-14T01:18:15.263Z,39.14
2023-02-14T01:20:41.656Z,39.46
2023-02-14T01:23:08.092Z,39.49
2023-02-14T01:25:34.543Z,39.35
2023-02-14T01:28:00.937Z,39.55
2023-02-14T01:30:27.396Z,39.55
2023-02-14T01:32:53.896Z,39.63
2023-02-14T01:35:20.490Z,39.41
2023-02-14T01:37:46.920Z,39.52
2023-02-14T01:40:13.544Z,39.54
2023-02-14T01:42:42.606Z,39.86
2023-02-14T01:45:08.993Z,40.01
2023-02-14T01:47:35.443Z,39.88
2023-02-14T01:50:01.874Z,39.96
2023-02-14T01:52:28.301Z,40.10
2023-02-14T01:54:54.761Z,40.13
2023-02-14T01:57:21.205Z,40.38
2023-02-14T01:59:47.592Z,40.43
2023-02-14T02:02:14.100Z,40.17
2023-02-14T02:04:40.569Z,40.36
2023-02-14T02:07:06.972Z,40.04
2023-02-14T02:09:33.409Z,40.40
2023-02-14T02:11:59.799Z,40.21
2023-02-14T02:14:26.216Z,40.03
2023-02-14T02:16:52.761Z,40.00
2023-02-14T02:19:19.209Z,39.48
2023-02-14T02:21:45.619Z,39.56
2023-02-14T02:24:12.154Z,39.75
2023-02-14T02:26:38.559Z,39.65
2023-02-14T02:29:05.070Z,40.02
2023-02-14T02:31:31.694Z,40.00
2023-02-14T02:33:58.268Z,39.93
2023-02-14T02:36:24.730Z,39.90
2023-02-14T02:38:51.855Z,39.90
2023-02-14T02:41:18.645Z,39.82
2023-02-14T02:43:45.056Z,40.18
2023-02-14T02:46:11.546Z,39.94
2023-02-14T02:48:38.003Z,40.00
2023-02-14T02:51:06.018Z,40.15
2023-02-14T02:53:32.448Z,39.99
2023-02-14T02:55:58.986Z,40.13
2023-02-14T02:58:25.456Z,40.19
2023-02-14T03:00:51.924Z,39.91
2023-02-14T03:03:21.252Z,40.12
2023-02-14T03:05:47.658Z,40.14
2023-02-14T03:08:16.082Z,39.88
2023-02-14T03:10:42.474Z,40.05
2023-02-14T03:13:09.176Z,39.95
2023-02-14T03:15:35.708Z,39.29
2023-02-14T03:18:02.180Z,39.10
2023-02-14T03:20:28.641Z,38.90
2023-02-14T03:22:57.071Z,38.68
2023-02-14T03:25:23.498Z,38.49
2023-02-14T03:27:49.915Z,38.32
2023-02-14T03:30:16.398Z,38.29
2023-02-14T03:32:42.812Z,37.94
2023-02-14T03:35:09.640Z,37.67
2023-02-14T03:37:36.151Z,37.42
2023-02-14T03:40:03.292Z,37.27
2023-02-14T03:42:29.942Z,37.31
2023-02-14T03:44:56.556Z,37.28
2023-02-14T03:47:23.095Z,36.82
2023-02-14T03:49:49.586Z,36.54
2023-02-14T03:52:16.157Z,36.58
2023-02-14T03:54:42.553Z,36.41
2023-02-14T03:57:08.935Z,35.99
2023-02-14T03:59:35.386Z,36.02
2023-02-14T04:02:01.852Z,35.90
2023-02-14T04:04:28.315Z,36.01
2023-02-14T04:06:54.777Z,35.88
2023-02-14T04:09:21.164Z,35.65
2023-02-14T04:11:47.693Z,35.22
2023-02-14T04:14:14.214Z,35.18
2023-02-14T04:16:40.658Z,34.93
2023-02-14T04:19:07.071Z,34.73
2023-02-14T04:21:33.552Z,35.02
2023-02-14T04:24:00.008Z,34.78
2023-02-14T04:26:26.399Z,34.69
2023-02-14T04:28:52.861Z,34.24
2023-02-14T04:31:19.393Z,34.12
2023-02-14T04:33:45.909Z,34.28
2023-02-14T04:36:12.429Z,34.08
2023-02-14T04:38:38.881Z,33.88
2023-02-14T04:41:05.350Z,33.68
2023-02-14T04:43:31.806Z,33.65
2023-02-14T04:45:58.288Z,33.92
2023-02-14T04:48:24.775Z,33.93
2023-02-14T04:50:51.252Z,33.76
2023-02-14T04:53:17.721Z,33.90
2023-02-14T04:55:44.260Z,33.56
2023-02-14T04:58:10.719Z,33.52
2023-02-14T05:00:37.181Z,33.35
2023-02-14T05:03:03.673Z,33.37
2023-02-14T05:05:30.207Z,32.95
2023-02-14T05:07:56.709Z,32.64
2023-02-14T05:10:23.231Z,32.39
2023-02-14T05:12:49.808Z,32.24
2023-02-14T05:15:16.311Z,32.15
2023-02-14T05:17:42.784Z,32.04
2023-02-14T05:20:09.261Z,32.01
2023-02-14T05:22:35.729Z,31.95
2023-02-14T05:25:02.235Z,31.97
2023-02-14T05:27:28.933Z,32.02
2023-02-14T05:29:55.444Z,32.13
2023-02-14T05:32:21.989Z,32.12
2023-02-14T05:34:48.487Z,32.08
2023-02-14T05:37:14.934Z,32.07
2023-02-14T05:39:41.368Z,31.63
2023-02-14T05:42:12.249Z,31.60
2023-02-14T05:44:38.724Z,31.70
2023-02-14T05:47:05.157Z,31.95
2023-02-14T05:49:31.700Z,31.68
2023-02-14T05:51:58.171Z,31.82
2023-02-14T05:54:24.673Z,31.74
2023-02-14T05:56:51.179Z,31.92
2023-02-14T05:59:17.626Z,31.74
2023-02-14T06:01:44.115Z,31.96
2023-02-14T06:04:10.688Z,32.00
2023-02-14T06:06:37.163Z,32.28
2023-02-14T06:09:05.109Z,31.92
2023-02-14T06:11:31.669Z,32.06
2023-02-14T06:13:58.130Z,32.26
2023-02-14T06:16:24.636Z,31.99
2023-02-14T06:18:51.230Z,31.89
2023-02-14T06:21:17.697Z,31.90
2023-02-14T06:23:44.212Z,32.13
2023-02-14T06:26:10.741Z,32.07
2023-02-14T06:28:37.227Z,32.01
2023-02-14T06:31:04.114Z,31.91
2023-02-14T06:33:30.907Z,32.12
2023-02-14T06:35:57.380Z,31.85
2023-02-14T06:38:23.825Z,31.80
2023-02-14T06:40:50.405Z,31.72
2023-02-14T06:43:16.838Z,31.85
2023-02-14T06:45:43.308Z,31.70
2023-02-14T06:48:09.830Z,31.77
2023-02-14T06:50:36.289Z,31.72
2023-02-14T06:53:02.693Z,31.73
2023-02-14T06:55:29.159Z,31.75
2023-02-14T06:57:55.588Z,31.71
2023-02-14T07:00:22.035Z,31.78
2023-02-14T07:02:48.568Z,31.57
2023-02-14T07:05:15.084Z,31.96
2023-02-14T07:07:41.538Z,31.66
2023-02-14T07:10:08.030Z,31.60
2023-02-14T07:12:34.460Z,31.85
2023-02-14T07:15:00.883Z,29.77
2023-02-14T07:17:27.383Z,30.71
2023-02-14T07:19:53.858Z,31.03
2023-02-14T07:22:20.314Z,30.96
2023-02-14T07:24:46.808Z,30.89
2023-02-14T07:27:13.249Z,30.64
2023-02-14T07:29:39.678Z,30.75
2023-02-14T07:32:06.328Z,30.74
2023-02-14T07:34:32.827Z,30.47
2023-02-14T07:36:59.240Z,30.33
2023-02-14T07:39:25.730Z,30.52
2023-02-14T07:41:52.159Z,30.48
2023-02-14T07:44:19.314Z,30.56
2023-02-14T07:46:45.797Z,30.50
2023-02-14T07:49:12.228Z,30.47
2023-02-14T07:51:38.652Z,30.33
2023-02-14T07:54:05.129Z,30.07
2023-02-14T07:56:31.589Z,29.96
2023-02-14T07:58:58.060Z,29.96
2023-02-14T08:01:24.586Z,30.02
2023-02-14T08:03:51.012Z,30.06
2023-02-14T08:06:17.479Z,29.80
2023-02-14T08:08:43.971Z,29.96
2023-02-14T08:11:10.389Z,29.76
2023-02-14T08:13:36.852Z,29.87
2023-02-14T08:16:03.385Z,29.67
2023-02-14T08:18:29.852Z,26.43
2023-02-14T08:20:56.317Z,27.52
2023-02-14T08:23:22.807Z,28.20
2023-02-14T08:25:49.234Z,28.33
2023-02-14T08:28:15.658Z,27.94
2023-02-14T08:30:42.163Z,27.90
2023-02-14T08:33:08.600Z,27.83
2023-02-14T08:35:34.999Z,27.94
2023-02-14T08:38:01.499Z,27.66
2023-02-14T08:40:27.907Z,27.77
2023-02-14T08:42:54.320Z,27.81
2023-02-14T08:45:20.848Z,27.75
2023-02-14T08:47:47.248Z,27.50
2023-02-14T08:50:13.675Z,27.52
2023-02-14T08:52:40.171Z,27.68
2023-02-14T08:55:06.646Z,27.51
2023-02-14T08:57:33.178Z,27.44
2023-02-14T08:59:59.783Z,27.50
2023-02-14T09:02:26.251Z,27.22
2023-02-14T09:04:52.750Z,27.29
2023-02-14T09:07:19.237Z,27.49
2023-02-14T09:09:45.662Z,27.12
2023-02-14T09:12:12.235Z,27.40
2023-02-14T09:14:38.762Z,27.36
2023-02-14T09:17:05.239Z,27.10
2023-02-14T09:19:31.678Z,27.03
2023-02-14T09:21:58.149Z,27.11
2023-02-14T09:24:24.573Z,26.97
2023-02-14T09:26:51.013Z,27.00
2023-02-14T09:29:17.501Z,26.90
2023-02-14T09:31:44.008Z,26.98
2023-02-14T09:34:10.508Z,27.05
2023-02-14T09:36:36.989Z,27.18
2023-02-14T09:39:03.443Z,26.97
2023-02-14T09:41:29.854Z,26.74
2023-02-14T09:43:56.422Z,27.06
2023-02-14T09:46:22.927Z,27.07
2023-02-14T09:48:49.368Z,26.96
2023-02-14T09:51:15.878Z,26.98
2023-02-14T09:53:42.303Z,26.59
2023-02-14T09:56:08.748Z,26.68
2023-02-14T09:58:35.738Z,26.50
2023-02-14T10:01:02.506Z,26.59
2023-02-14T10:03:29.119Z,26.30
2023-02-14T10:05:55.763Z,26.51
2023-02-14T10:08:22.188Z,26.17
2023-02-14T10:10:48.616Z,26.34
2023-02-14T10:13:15.143Z,26.12
2023-02-14T10:15:41.622Z,26.21
2023-02-14T10:18:08.088Z,25.83
2023-02-14T10:20:34.569Z,26.25
2023-02-14T10:23:01.187Z,26.09
2023-02-14T10:25:27.664Z,25.90
2023-02-14T10:27:54.165Z,25.96
2023-02-14T10:30:20.685Z,25.96
2023-02-14T10:32:47.132Z,26.01
2023-02-14T10:35:13.605Z,26.46
2023-02-14T10:37:40.098Z,26.49
2023-02-14T10:40:06.512Z,26.20
2023-02-14T10:42:33.000Z,26.46
2023-02-14T10:44:59.458Z,26.36
2023-02-14T10:47:25.916Z,26.75
2023-02-14T10:49:52.417Z,26.97
2023-02-14T10:52:18.868Z,27.05
2023-02-14T10:54:45.274Z,27.09
2023-02-14T10:57:11.769Z,27.41
2023-02-14T10:59:38.174Z,27.36
2023-02-14T11:02:04.572Z,27.39
2023-02-14T11:04:31.146Z,27.58
2023-02-14T11:06:57.551Z,27.46
2023-02-14T11:09:23.987Z,27.08
2023-02-14T11:11:50.467Z,27.01
2023-02-14T11:14:17.427Z,27.28
2023-02-14T11:16:44.674Z,27.13
2023-02-14T11:19:11.181Z,27.12
2023-02-14T11:21:37.612Z,25.30
2023-02-14T11:24:04.038Z,24.41
2023-02-14T11:26:30.498Z,26.09
2023-02-14T11:28:57.008Z,26.47
2023-02-14T11:31:23.528Z,26.60
2023-02-14T11:33:50.038Z,26.49
2023-02-14T11:36:16.474Z,26.34
2023-02-14T11:38:42.943Z,26.47
2023-02-14T11:41:09.419Z,25.77
2023-02-14T11:43:35.851Z,26.46
2023-02-14T11:46:02.324Z,26.65
2023-02-14T11:48:38.333Z,26.55
2023-02-14T11:51:05.513Z,26.64
2023-02-14T11:53:31.999Z,26.27
2023-02-14T11:55:58.442Z,26.50
2023-02-14T11:58:24.893Z,26.47
2023-02-14T12:00:51.390Z,26.57
2023-02-14T12:03:17.845Z,26.59
2023-02-14T12:05:44.298Z,26.54
2023-02-14T12:08:10.794Z,26.29
2023-02-14T12:10:37.255Z,26.25
2023-02-14T12:13:03.700Z,26.56
2023-02-14T12:15:30.253Z,26.52
2023-02-14T12:17:56.698Z,26.51
2023-02-14T12:20:23.141Z,26.37
2023-02-14T12:22:49.621Z,26.27
2023-02-14T12:25:16.029Z,26.40
2023-02-14T12:27:42.457Z,26.28
2023-02-14T12:30:08.971Z,26.12
2023-02-14T12:32:35.426Z,26.30
2023-02-14T12:35:01.855Z,25.81
2023-02-14T12:37:28.352Z,25.48
2023-02-14T12:39:54.780Z,25.19
2023-02-14T12:42:21.187Z,25.13
2023-02-14T12:44:47.687Z,25.37
2023-02-14T12:47:14.130Z,25.93
2023-02-14T12:49:40.560Z,25.87
2023-02-14T12:52:07.050Z,26.01
2023-02-14T12:54:33.494Z,26.00
2023-02-14T12:56:59.941Z,26.26
2023-02-14T12:59:26.439Z,26.09
2023-02-14T13:01:52.900Z,26.17
2023-02-14T13:04:19.360Z,26.03
2023-02-14T13:06:46.128Z,26.13
2023-02-14T13:09:12.580Z,26.00
2023-02-14T13:11:38.993Z,26.22
2023-02-14T13:14:05.525Z,25.69
2023-02-14T13:16:31.993Z,25.63
2023-02-14T13:18:58.436Z,26.06
2023-02-14T13:21:24.931Z,26.22
2023-02-14T13:23:51.422Z,26.01
2023-02-14T13:26:17.858Z,26.09
2023-02-14T13:28:44.338Z,26.43
2023-02-14T13:31:10.851Z,26.66
2023-02-14T13:33:37.342Z,26.74
2023-02-14T13:36:03.831Z,26.68
2023-02-14T13:38:30.460Z,26.69
2023-02-14T13:40:56.930Z,26.71
2023-02-14T13:43:23.416Z,26.97
2023-02-14T13:45:49.818Z,27.09
2023-02-14T13:48:16.225Z,26.83
2023-02-14T13:50:42.671Z,26.53
2023-02-14T13:53:09.284Z,26.54
2023-02-14T13:55:35.683Z,26.89
2023-02-14T13:58:02.211Z,26.75
2023-02-14T14:00:28.650Z,26.76
2023-02-14T14:02:55.103Z,26.97
2023-02-14T14:05:21.569Z,26.92
2023-02-14T14:07:47.962Z,26.95
2023-02-14T14:10:14.372Z,27.00
2023-02-14T14:12:40.926Z,27.05
2023-02-14T14:15:07.327Z,27.13
2023-02-14T14:17:33.866Z,27.04
2023-02-14T14:20:00.352Z,27.05
2023-02-14T14:22:26.781Z,27.25
2023-02-14T14:24:53.198Z,27.25
2023-02-14T14:27:19.710Z,27.18
2023-02-14T14:29:46.127Z,27.30
2023-02-14T14:32:12.923Z,27.38
2023-02-14T14:34:39.527Z,27.36
2023-02-14T14:37:06.013Z,27.40
2023-02-14T14:39:32.537Z,27.59
2023-02-14T14:41:59.011Z,27.67
2023-02-14T14:44:25.480Z,27.69
2023-02-14T14:46:51.904Z,27.65
2023-02-14T14:49:18.432Z,27.86
2023-02-14T14:51:44.930Z,27.81
2023-02-14T14:54:11.376Z,27.90
2023-02-14T14:56:37.856Z,27.69
2023-02-14T14:59:04.287Z,27.72
2023-02-14T15:01:30.737Z,27.90
2023-02-14T15:03:57.253Z,27.95
2023-02-14T15:06:23.682Z,27.97
2023-02-14T15:08:50.118Z,28.22
2023-02-14T15:11:16.572Z,28.23
2023-02-14T15:13:43.013Z,28.27
2023-02-14T15:16:09.451Z,28.30
2023-02-14T15:18:35.900Z,28.40
2023-02-14T15:21:02.836Z,28.53
2023-02-14T15:23:29.492Z,28.53
2023-02-14T15:25:56.045Z,28.63
2023-02-14T15:28:22.490Z,28.85
2023-02-14T15:30:48.998Z,28.57
2023-02-14T15:33:15.543Z,28.74
2023-02-14T15:35:41.952Z,28.95
2023-02-14T15:38:08.395Z,28.91
2023-02-14T15:40:34.965Z,29.09
2023-02-14T15:43:01.441Z,29.10
2023-02-14T15:45:27.966Z,29.02
2023-02-14T15:47:54.475Z,29.28
2023-02-14T15:50:20.881Z,29.08
2023-02-14T15:52:47.264Z,29.33
2023-02-14T15:55:13.911Z,29.27
2023-02-14T15:57:40.423Z,29.52
2023-02-14T16:00:06.843Z,29.38
2023-02-14T16:02:38.567Z,29.52
2023-02-14T16:05:04.997Z,29.47
2023-02-14T16:07:31.446Z,29.60
2023-02-14T16:09:57.973Z,29.53
2023-02-14T16:12:24.609Z,29.64
2023-02-14T16:14:51.076Z,29.60
2023-02-14T16:17:17.633Z,29.55
2023-02-14T16:19:44.096Z,29.88
2023-02-14T16:22:10.539Z,29.75
2023-02-14T16:24:36.998Z,29.96
2023-02-14T16:27:03.383Z,29.72
2023-02-14T16:29:29.760Z,29.82
2023-02-14T16:32:14.705Z,29.99
2023-02-14T16:34:42.370Z,30.11
2023-02-14T16:37:08.863Z,30.20
2023-02-14T16:39:35.305Z,30.04
2023-02-14T16:42:01.726Z,30.06
2023-02-14T16:44:28.225Z,30.09
2023-02-14T16:46:54.605Z,30.21
2023-02-14T16:49:21.006Z,30.17
2023-02-14T16:51:47.441Z,30.28
2023-02-14T16:54:13.821Z,30.38
2023-02-14T16:56:40.203Z,30.40
2023-02-14T16:59:06.681Z,30.20
2023-02-14T17:01:33.144Z,30.45
2023-02-14T17:03:59.710Z,30.22
2023-02-14T17:06:26.246Z,30.36
2023-02-14T17:08:52.690Z,30.30
2023-02-14T17:11:19.123Z,30.35
2023-02-14T17:13:45.656Z,30.32
2023-02-14T17:16:12.149Z,30.73
2023-02-14T17:18:38.676Z,30.55
2023-02-14T17:21:05.170Z,30.84
2023-02-14T17:23:31.643Z,30.80
2023-02-14T17:25:58.090Z,30.89
2023-02-14T17:28:24.538Z,30.94
2023-02-14T17:30:51.066Z,30.75
2023-02-14T17:33:17.591Z,30.77
2023-02-14T17:35:44.088Z,31.04
2023-02-14T17:38:10.585Z,30.69
2023-02-14T17:40:36.966Z,31.04
2023-02-14T17:43:03.461Z,31.12
2023-02-14T17:45:29.919Z,31.00
2023-02-14T17:47:56.398Z,30.91
2023-02-14T17:50:22.892Z,31.11
2023-02-14T17:52:49.278Z,31.10
2023-02-14T17:55:15.696Z,30.99
2023-02-14T17:57:42.138Z,31.32
2023-02-14T18:00:11.306Z,31.12
2023-02-14T18:02:40.805Z,31.52
2023-02-14T18:05:07.397Z,31.38
2023-02-14T18:07:33.890Z,31.34
2023-02-14T18:10:00.419Z,31.50
2023-02-14T18:12:26.952Z,31.42
2023-02-14T18:14:53.392Z,31.65
2023-02-14T18:17:19.886Z,31.55
2023-02-14T18:19:46.495Z,31.82
2023-02-14T18:22:12.914Z,31.73
2023-02-14T18:24:39.305Z,31.77
2023-02-14T18:27:05.848Z,31.80
2023-02-14T18:29:32.343Z,31.96
2023-02-14T18:31:58.757Z,31.99
2023-02-14T18:34:25.222Z,31.95
2023-02-14T18:36:51.637Z,31.94
2023-02-14T18:39:18.072Z,31.94
2023-02-14T18:41:44.565Z,32.17
2023-02-14T18:44:11.034Z,32.06
2023-02-14T18:46:37.509Z,32.13
2023-02-14T18:49:04.027Z,31.90
2023-02-14T18:51:30.474Z,31.97
2023-02-14T18:53:56.951Z,31.93
2023-02-14T18:56:23.529Z,32.20
2023-02-14T18:58:49.975Z,32.22
2023-02-14T19:01:16.501Z,32.15
2023-02-14T19:03:43.080Z,32.44
2023-02-14T19:06:09.506Z,32.43
2023-02-14T19:08:35.998Z,32.28
2023-02-14T19:11:02.786Z,32.28
2023-02-14T19:13:29.332Z,32.31
2023-02-14T19:15:55.804Z,32.52
2023-02-14T19:18:24.188Z,32.57
2023-02-14T19:20:52.142Z,32.67
2023-02-14T19:23:18.619Z,32.57
2023-02-14T19:25:45.195Z,32.36
2023-02-14T19:28:11.682Z,32.50
2023-02-14T19:30:38.086Z,32.68
2023-02-14T19:33:04.635Z,32.73
2023-02-14T19:35:31.094Z,32.87
2023-02-14T19:37:57.582Z,32.84
2023-02-14T19:40:24.141Z,32.72
2023-02-14T19:42:50.561Z,32.86
2023-02-14T19:45:17.067Z,32.80
2023-02-14T19:47:47.333Z,32.94
2023-02-14T19:50:14.054Z,32.80
2023-02-14T19:52:40.514Z,33.05
2023-02-14T19:55:06.969Z,33.02
2023-02-14T19:57:33.460Z,33.14
2023-02-14T19:59:59.988Z,33.22
2023-02-14T20:02:26.587Z,33.06
2023-02-14T20:04:53.092Z,33.08
2023-02-14T20:07:19.542Z,33.08
2023-02-14T20:09:46.088Z,33.25
2023-02-14T20:12:12.550Z,33.46
2023-02-14T20:14:51.019Z,33.37
2023-02-14T20:17:18.318Z,33.15
2023-02-14T20:19:44.755Z,33.32
2023-02-14T20:22:11.171Z,33.35
2023-02-14T20:24:37.590Z,33.53
2023-02-14T20:27:04.084Z,33.32
2023-02-14T20:29:30.478Z,33.52
2023-02-14T20:31:56.926Z,33.47
2023-02-14T20:34:23.378Z,33.38
2023-02-14T20:36:49.777Z,33.33
2023-02-14T20:39:16.212Z,33.74
2023-02-14T20:41:42.623Z,33.38
2023-02-14T20:44:09.053Z,33.72
2023-02-14T20:46:35.564Z,33.47
2023-02-14T20:49:02.136Z,33.55
2023-02-14T20:51:28.533Z,33.58
2023-02-14T20:53:54.984Z,33.82
2023-02-14T20:56:21.421Z,33.51
2023-02-14T20:58:47.875Z,33.77
2023-02-14T21:01:14.365Z,33.80
2023-02-14T21:03:40.956Z,33.63
2023-02-14T21:06:07.395Z,33.61
2023-02-14T21:08:33.824Z,33.65
2023-02-14T21:11:00.520Z,33.62
2023-02-14T21:13:27.176Z,33.71
2023-02-14T21:15:53.617Z,33.71
2023-02-14T21:18:20.082Z,33.88
2023-02-14T21:20:46.514Z,33.86
2023-02-14T21:23:12.954Z,33.96
2023-02-14T21:25:39.505Z,34.01
2023-02-14T21:28:05.939Z,34.13
2023-02-14T21:30:32.358Z,33.78
2023-02-14T21:32:58.771Z,34.07
2023-02-14T21:35:25.228Z,34.25
2023-02-14T21:37:51.719Z,34.09
2023-02-14T21:40:18.177Z,34.11
2023-02-14T21:42:44.550Z,34.37
2023-02-14T21:45:10.979Z,34.11
2023-02-14T21:47:37.433Z,34.03
2023-02-14T21:50:03.813Z,34.14
2023-02-14T21:52:30.272Z,34.38
2023-02-14T21:54:56.748Z,34.08
2023-02-14T21:57:23.111Z,34.26
2023-02-14T21:59:49.584Z,34.48
2023-02-14T22:02:16.040Z,34.32
2023-02-14T22:04:42.411Z,34.39
2023-02-14T22:07:08.806Z,34.61
2023-02-14T22:09:35.290Z,34.55
2023-02-14T22:12:01.659Z,34.37
2023-02-14T22:14:28.119Z,34.47
2023-02-14T22:16:54.522Z,34.40
2023-02-14T22:19:20.908Z,34.76
2023-02-14T22:21:47.339Z,34.71
2023-02-14T22:24:13.741Z,34.78
2023-02-14T22:26:40.150Z,34.70
2023-02-14T22:29:06.589Z,34.70
2023-02-14T22:31:33.200Z,34.44
2023-02-14T22:33:59.680Z,34.67
2023-02-14T22:36:26.127Z,34.76
2023-02-14T22:38:52.581Z,34.52
2023-02-14T22:41:18.984Z,34.62
2023-02-14T22:43:45.439Z,34.84
2023-02-14T22:46:11.855Z,34.69
2023-02-14T22:48:38.327Z,34.73
2023-02-14T22:51:04.819Z,34.60
2023-02-14T22:53:31.192Z,34.94
2023-02-14T22:55:57.568Z,34.76
2023-02-14T22:58:24.007Z,34.67
2023-02-14T23:00:50.389Z,35.06
2023-02-14T23:03:16.798Z,35.00
2023-02-14T23:05:43.235Z,34.79
2023-02-14T23:08:09.615Z,34.82
2023-02-14T23:10:36.041Z,34.95
2023-02-14T23:13:02.477Z,34.86
2023-02-14T23:15:28.872Z,35.06
2023-02-14T23:17:55.273Z,34.94
2023-02-14T23:20:21.718Z,35.02
2023-02-14T23:22:48.097Z,35.20
2023-02-14T23:25:14.471Z,34.98
2023-02-14T23:27:40.902Z,34.98
2023-02-14T23:30:07.362Z,35.26
2023-02-14T23:32:33.759Z,35.18
2023-02-14T23:35:00.211Z,35.19
2023-02-14T23:37:26.611Z,35.31
2023-02-14T23:39:53.019Z,35.30
2023-02-14T23:42:19.449Z,35.37
2023-02-14T23:44:45.847Z,35.38
2023-02-14T23:47:12.217Z,35.37
2023-02-14T23:49:38.652Z,35.34
2023-02-14T23:52:05.047Z,35.21
2023-02-14T23:54:31.522Z,35.54
2023-02-14T23:56:58.027Z,35.31
2023-02-14T23:59:24.408Z,35.53
